createdAt,value
2016-07-31T00:01:00.323Z,"  -65"
2016-07-31T00:02:03.974Z,"  -64"
2016-07-31T00:03:07.967Z,"  -60"
2016-07-31T00:04:11.625Z,"  -59"
2016-07-31T00:05:15.282Z,"  -65"
2016-07-31T00:06:18.928Z,"  -63"
2016-07-31T00:07:22.555Z,"  -65"
2016-07-31T00:08:26.207Z,"  -63"
2016-07-31T00:10:37.988Z,"  -64"
2016-07-31T00:11:41.608Z,"  -64"
2016-07-31T00:12:45.456Z,"  -63"
2016-07-31T00:13:49.068Z,"  -65"
2016-07-31T00:14:52.716Z,"  -62"
2016-07-31T00:15:56.342Z,"  -67"
2016-07-31T00:16:59.992Z,"  -64"
2016-07-31T00:18:03.851Z,"  -64"
2016-07-31T00:19:07.508Z,"  -65"
2016-07-31T00:20:11.189Z,"  -64"
2016-07-31T00:21:14.858Z,"  -65"
2016-07-31T00:22:18.718Z,"  -65"
2016-07-31T00:23:22.366Z,"  -66"
2016-07-31T00:24:26.017Z,"  -66"
2016-07-31T00:25:29.688Z,"  -63"
2016-07-31T00:26:33.372Z,"  -65"
2016-07-31T00:27:37.033Z,"  -66"
2016-07-31T00:28:40.694Z,"  -63"
2016-07-31T00:29:44.337Z,"  -66"
2016-07-31T00:30:47.990Z,"  -66"
2016-07-31T00:31:51.882Z,"  -64"
2016-07-31T00:32:55.574Z,"  -65"
2016-07-31T00:33:59.242Z,"  -62"
2016-07-31T00:35:02.860Z,"  -63"
2016-07-31T00:36:06.516Z,"  -66"
2016-07-31T00:37:10.142Z,"  -65"
2016-07-31T00:38:13.790Z,"  -62"
2016-07-31T00:39:17.487Z,"  -65"
2016-07-31T00:40:21.146Z,"  -63"
2016-07-31T00:41:24.791Z,"  -60"
2016-07-31T00:42:28.448Z,"  -60"
2016-07-31T00:43:32.094Z,"  -64"
2016-07-31T00:44:35.759Z,"  -66"
2016-07-31T00:45:39.411Z,"  -63"
2016-07-31T00:46:43.074Z,"  -66"
2016-07-31T00:47:46.687Z,"  -66"
2016-07-31T00:48:50.357Z,"  -66"
2016-07-31T00:49:54.000Z,"  -66"
2016-07-31T00:50:57.661Z,"  -66"
2016-07-31T00:52:01.304Z,"  -62"
2016-07-31T00:53:04.956Z,"  -63"
2016-07-31T00:54:08.629Z,"  -65"
2016-07-31T00:55:12.263Z,"  -64"
2016-07-31T00:56:15.911Z,"  -61"
2016-07-31T00:57:19.578Z,"  -62"
2016-07-31T00:58:23.242Z,"  -64"
2016-07-31T00:59:26.908Z,"  -64"
2016-07-31T01:00:30.551Z,"  -67"
2016-07-31T01:01:34.202Z,"  -60"
2016-07-31T01:02:37.867Z,"  -66"
2016-07-31T01:03:41.740Z,"  -66"
2016-07-31T01:04:45.389Z,"  -64"
2016-07-31T01:05:49.058Z,"  -64"
2016-07-31T01:06:52.707Z,"  -65"
2016-07-31T01:07:56.366Z,"  -64"
2016-07-31T01:09:00.027Z,"  -65"
2016-07-31T01:10:03.684Z,"  -64"
2016-07-31T01:11:07.357Z,"  -64"
2016-07-31T01:12:11.042Z,"  -66"
2016-07-31T01:13:14.693Z,"  -64"
2016-07-31T01:14:18.333Z,"  -65"
2016-07-31T01:15:22.002Z,"  -66"
2016-07-31T01:16:25.660Z,"  -66"
2016-07-31T01:17:29.310Z,"  -64"
2016-07-31T01:18:32.971Z,"  -65"
2016-07-31T01:19:36.628Z,"  -64"
2016-07-31T01:20:40.299Z,"  -66"
2016-07-31T01:21:43.953Z,"  -65"
2016-07-31T01:22:47.611Z,"  -65"
2016-07-31T01:23:51.291Z,"  -65"
2016-07-31T01:24:54.943Z,"  -63"
2016-07-31T01:25:58.781Z,"  -65"
2016-07-31T01:27:02.425Z,"  -66"
2016-07-31T01:28:06.264Z,"  -66"
2016-07-31T01:29:09.923Z,"  -66"
2016-07-31T01:30:13.609Z,"  -63"
2016-07-31T01:31:17.253Z,"  -67"
2016-07-31T01:32:20.914Z,"  -66"
2016-07-31T01:33:24.585Z,"  -65"
2016-07-31T01:34:28.233Z,"  -66"
2016-07-31T01:35:31.905Z,"  -64"
2016-07-31T01:36:35.538Z,"  -64"
2016-07-31T01:37:39.192Z,"  -67"
2016-07-31T01:38:42.841Z,"  -64"
2016-07-31T01:39:46.508Z,"  -66"
2016-07-31T01:40:50.154Z,"  -66"
2016-07-31T01:41:53.820Z,"  -66"
2016-07-31T01:42:57.486Z,"  -67"
2016-07-31T01:44:01.185Z,"  -63"
2016-07-31T01:45:04.855Z,"  -66"
2016-07-31T01:46:08.507Z,"  -63"
2016-07-31T01:47:12.157Z,"  -64"
2016-07-31T01:48:15.809Z,"  -66"
2016-07-31T01:49:19.480Z,"  -64"
2016-07-31T01:50:23.139Z,"  -64"
2016-07-31T01:51:26.832Z,"  -65"
2016-07-31T01:52:31.379Z,"  -65"
2016-07-31T01:53:35.069Z,"  -63"
2016-07-31T01:54:38.931Z,"  -65"
2016-07-31T01:55:42.587Z,"  -66"
2016-07-31T01:56:46.255Z,"  -66"
2016-07-31T01:57:49.887Z,"  -64"
2016-07-31T01:58:53.549Z,"  -65"
2016-07-31T01:59:57.226Z,"  -64"
2016-07-31T02:01:00.873Z,"  -63"
2016-07-31T02:02:04.491Z,"  -66"
2016-07-31T02:03:08.159Z,"  -65"
2016-07-31T02:04:11.831Z,"  -67"
2016-07-31T02:05:15.502Z,"  -65"
2016-07-31T02:06:19.159Z,"  -65"
2016-07-31T02:07:22.823Z,"  -65"
2016-07-31T02:08:26.449Z,"  -64"
2016-07-31T02:09:30.298Z,"  -65"
2016-07-31T02:10:33.930Z,"  -67"
2016-07-31T02:11:37.811Z,"  -65"
2016-07-31T02:12:41.505Z,"  -66"
2016-07-31T02:13:45.173Z,"  -65"
2016-07-31T02:14:48.848Z,"  -66"
2016-07-31T02:15:52.507Z,"  -66"
2016-07-31T02:16:56.349Z,"  -66"
2016-07-31T02:17:59.996Z,"  -65"
2016-07-31T02:19:03.659Z,"  -66"
2016-07-31T02:20:07.306Z,"  -64"
2016-07-31T02:21:10.996Z,"  -63"
2016-07-31T02:22:14.608Z,"  -60"
2016-07-31T02:23:18.239Z,"  -60"
2016-07-31T02:24:21.914Z,"  -59"
2016-07-31T02:25:25.581Z,"  -60"
2016-07-31T02:26:29.244Z,"  -58"
2016-07-31T02:27:32.903Z,"  -58"
2016-07-31T02:28:36.596Z,"  -60"
2016-07-31T02:29:40.471Z,"  -60"
2016-07-31T02:30:44.149Z,"  -59"
2016-07-31T02:31:47.834Z,"  -58"
2016-07-31T02:32:51.488Z,"  -58"
2016-07-31T02:33:55.136Z,"  -59"
2016-07-31T02:34:58.838Z,"  -60"
2016-07-31T02:36:02.536Z,"  -60"
2016-07-31T02:37:06.185Z,"  -58"
2016-07-31T02:38:09.862Z,"  -59"
2016-07-31T02:39:13.531Z,"  -60"
2016-07-31T02:40:17.256Z,"  -60"
2016-07-31T02:41:21.115Z,"  -60"
2016-07-31T02:42:24.771Z,"  -59"
2016-07-31T02:44:31.651Z,"  -62"
2016-07-31T02:45:35.326Z,"  -60"
2016-07-31T02:46:38.980Z,"  -58"
2016-07-31T02:47:42.628Z,"  -59"
2016-07-31T02:48:46.303Z,"  -59"
2016-07-31T02:49:49.938Z,"  -60"
2016-07-31T02:50:53.622Z,"  -60"
2016-07-31T02:51:57.271Z,"  -59"
2016-07-31T02:53:01.112Z,"  -60"
2016-07-31T02:54:04.759Z,"  -60"
2016-07-31T02:55:08.395Z,"  -60"
2016-07-31T02:56:12.864Z,"  -61"
2016-07-31T02:57:16.520Z,"  -59"
2016-07-31T02:59:24.173Z,"  -60"
2016-07-31T03:00:27.846Z,"  -59"
2016-07-31T03:01:31.502Z,"  -58"
2016-07-31T03:02:35.183Z,"  -59"
2016-07-31T03:03:38.821Z,"  -61"
2016-07-31T03:04:42.490Z,"  -59"
2016-07-31T03:05:46.167Z,"  -62"
2016-07-31T03:06:49.796Z,"  -60"
2016-07-31T03:07:53.460Z,"  -59"
2016-07-31T03:08:57.103Z,"  -60"
2016-07-31T03:10:00.732Z,"  -58"
2016-07-31T03:11:04.405Z,"  -59"
2016-07-31T03:12:08.058Z,"  -58"
2016-07-31T03:13:11.714Z,"  -59"
2016-07-31T03:14:15.356Z,"  -59"
2016-07-31T03:15:19.027Z,"  -59"
2016-07-31T03:16:22.689Z,"  -58"
2016-07-31T03:17:26.377Z,"  -58"
2016-07-31T03:18:30.034Z,"  -59"
2016-07-31T03:19:33.673Z,"  -60"
2016-07-31T03:20:37.337Z,"  -58"
2016-07-31T03:21:40.982Z,"  -59"
2016-07-31T03:22:44.851Z,"  -58"
2016-07-31T03:23:48.484Z,"  -60"
2016-07-31T03:24:52.187Z,"  -59"
2016-07-31T03:25:55.827Z,"  -58"
2016-07-31T03:26:59.512Z,"  -58"
2016-07-31T03:28:03.134Z,"  -60"
2016-07-31T03:29:06.784Z,"  -58"
2016-07-31T03:30:10.429Z,"  -59"
2016-07-31T03:31:14.023Z,"  -59"
2016-07-31T03:32:17.697Z,"  -59"
2016-07-31T03:33:21.538Z,"  -59"
2016-07-31T03:34:25.176Z,"  -58"
2016-07-31T03:35:28.852Z,"  -59"
2016-07-31T03:36:32.512Z,"  -58"
2016-07-31T03:37:36.142Z,"  -57"
2016-07-31T03:38:39.802Z,"  -60"
2016-07-31T03:39:43.429Z,"  -58"
2016-07-31T03:40:47.118Z,"  -58"
2016-07-31T03:41:50.773Z,"  -60"
2016-07-31T03:42:54.433Z,"  -60"
2016-07-31T03:43:58.114Z,"  -60"
2016-07-31T03:45:01.781Z,"  -58"
2016-07-31T03:46:05.422Z,"  -61"
2016-07-31T03:47:09.051Z,"  -58"
2016-07-31T03:48:12.712Z,"  -59"
2016-07-31T03:49:16.394Z,"  -58"
2016-07-31T03:50:20.037Z,"  -59"
2016-07-31T03:51:23.678Z,"  -60"
2016-07-31T03:52:27.354Z,"  -58"
2016-07-31T03:53:31.021Z,"  -60"
2016-07-31T03:54:34.697Z,"  -59"
2016-07-31T03:55:38.373Z,"  -60"
2016-07-31T03:56:41.994Z,"  -59"
2016-07-31T03:57:45.643Z,"  -59"
2016-07-31T03:58:49.309Z,"  -62"
2016-07-31T03:59:52.952Z,"  -61"
2016-07-31T04:00:56.607Z,"  -58"
2016-07-31T04:02:00.242Z,"  -59"
2016-07-31T04:03:03.890Z,"  -60"
2016-07-31T04:04:07.546Z,"  -59"
2016-07-31T04:05:11.220Z,"  -58"
2016-07-31T04:06:14.866Z,"  -60"
2016-07-31T04:07:18.532Z,"  -60"
2016-07-31T04:08:22.210Z,"  -59"
2016-07-31T04:09:25.871Z,"  -61"
2016-07-31T04:10:29.517Z,"  -61"
2016-07-31T04:11:33.187Z,"  -60"
2016-07-31T04:12:36.850Z,"  -60"
2016-07-31T04:14:43.785Z,"  -61"
2016-07-31T04:15:47.455Z,"  -59"
2016-07-31T04:16:51.106Z,"  -61"
2016-07-31T04:17:54.766Z,"  -60"
2016-07-31T04:18:58.441Z,"  -61"
2016-07-31T04:20:02.112Z,"  -60"
2016-07-31T04:21:05.819Z,"  -60"
2016-07-31T04:22:09.462Z,"  -62"
2016-07-31T04:23:13.148Z,"  -60"
2016-07-31T04:24:16.814Z,"  -60"
2016-07-31T04:25:20.486Z,"  -63"
2016-07-31T04:26:24.173Z,"  -61"
2016-07-31T04:27:27.825Z,"  -60"
2016-07-31T04:28:31.494Z,"  -61"
2016-07-31T04:29:35.122Z,"  -60"
2016-07-31T04:30:38.758Z,"  -61"
2016-07-31T04:31:42.455Z,"  -59"
2016-07-31T04:32:46.117Z,"  -62"
2016-07-31T04:33:49.781Z,"  -59"
2016-07-31T04:34:53.440Z,"  -62"
2016-07-31T04:35:57.091Z,"  -61"
2016-07-31T04:37:00.778Z,"  -60"
2016-07-31T04:38:04.445Z,"  -59"
2016-07-31T04:39:08.128Z,"  -62"
2016-07-31T04:40:11.777Z,"  -60"
2016-07-31T04:41:15.420Z,"  -60"
2016-07-31T04:42:19.090Z,"  -59"
2016-07-31T04:43:22.757Z,"  -63"
2016-07-31T04:44:26.604Z,"  -60"
2016-07-31T04:45:30.290Z,"  -61"
2016-07-31T04:46:33.951Z,"  -61"
2016-07-31T04:47:37.798Z,"  -62"
2016-07-31T04:48:41.423Z,"  -62"
2016-07-31T04:49:45.116Z,"  -65"
2016-07-31T04:50:48.782Z,"  -65"
2016-07-31T04:51:52.418Z,"  -65"
2016-07-31T04:52:56.090Z,"  -65"
2016-07-31T04:53:59.763Z,"  -66"
2016-07-31T04:55:03.391Z,"  -66"
2016-07-31T04:56:07.072Z,"  -65"
2016-07-31T04:57:10.761Z,"  -64"
2016-07-31T04:58:14.428Z,"  -67"
2016-07-31T04:59:18.090Z,"  -64"
2016-07-31T05:00:21.755Z,"  -65"
2016-07-31T05:01:25.424Z,"  -66"
2016-07-31T05:02:29.069Z,"  -64"
2016-07-31T05:03:32.708Z,"  -66"
2016-07-31T05:04:37.254Z,"  -65"
2016-07-31T05:05:40.810Z,"  -66"
2016-07-31T05:06:45.356Z,"  -67"
2016-07-31T05:07:48.979Z,"  -66"
2016-07-31T05:08:52.655Z,"  -64"
2016-07-31T05:09:56.307Z,"  -66"
2016-07-31T05:10:59.955Z,"  -67"
2016-07-31T05:12:03.592Z,"  -66"
2016-07-31T05:13:07.266Z,"  -66"
2016-07-31T05:14:10.923Z,"  -66"
2016-07-31T05:15:14.594Z,"  -66"
2016-07-31T05:16:18.295Z,"  -65"
2016-07-31T05:17:21.943Z,"  -67"
2016-07-31T05:18:25.575Z,"  -66"
2016-07-31T05:19:29.236Z,"  -66"
2016-07-31T05:20:32.915Z,"  -66"
2016-07-31T05:21:36.589Z,"  -67"
2016-07-31T05:22:40.226Z,"  -66"
2016-07-31T05:23:43.943Z,"  -66"
2016-07-31T05:24:47.610Z,"  -65"
2016-07-31T05:25:51.280Z,"  -66"
2016-07-31T05:26:54.939Z,"  -65"
2016-07-31T05:27:58.589Z,"  -65"
2016-07-31T05:30:05.515Z,"  -65"
2016-07-31T05:31:09.380Z,"  -65"
2016-07-31T05:32:13.018Z,"  -65"
2016-07-31T05:33:16.849Z,"  -67"
2016-07-31T05:34:20.508Z,"  -68"
2016-07-31T05:35:24.152Z,"  -65"
2016-07-31T05:36:27.825Z,"  -64"
2016-07-31T05:37:31.671Z,"  -64"
2016-07-31T05:38:35.316Z,"  -65"
2016-07-31T05:39:39.004Z,"  -65"
2016-07-31T05:40:42.660Z,"  -66"
2016-07-31T05:41:46.341Z,"  -67"
2016-07-31T05:42:50.009Z,"  -66"
2016-07-31T05:43:53.844Z,"  -65"
2016-07-31T05:44:57.493Z,"  -66"
2016-07-31T05:46:01.155Z,"  -65"
2016-07-31T05:47:04.801Z,"  -65"
2016-07-31T05:48:08.434Z,"  -66"
2016-07-31T05:49:12.098Z,"  -66"
2016-07-31T05:50:15.740Z,"  -65"
2016-07-31T05:51:19.406Z,"  -67"
2016-07-31T05:52:23.063Z,"  -65"
2016-07-31T05:53:26.707Z,"  -65"
2016-07-31T05:54:30.558Z,"  -64"
2016-07-31T05:55:34.213Z,"  -65"
2016-07-31T05:56:37.893Z,"  -65"
2016-07-31T05:57:41.544Z,"  -64"
2016-07-31T05:58:45.227Z,"  -66"
2016-07-31T05:59:48.928Z,"  -65"
2016-07-31T06:00:52.589Z,"  -64"
2016-07-31T06:01:56.276Z,"  -64"
2016-07-31T06:02:59.967Z,"  -60"
2016-07-31T06:04:03.630Z,"  -60"
2016-07-31T06:05:07.276Z,"  -60"
2016-07-31T06:06:10.920Z,"  -60"
2016-07-31T06:07:14.577Z,"  -64"
2016-07-31T06:08:18.210Z,"  -60"
2016-07-31T06:09:21.861Z,"  -59"
2016-07-31T06:10:25.533Z,"  -59"
2016-07-31T06:11:29.182Z,"  -58"
2016-07-31T06:12:32.849Z,"  -59"
2016-07-31T06:13:36.509Z,"  -59"
2016-07-31T06:14:40.171Z,"  -58"
2016-07-31T06:15:43.826Z,"  -60"
2016-07-31T06:16:47.493Z,"  -59"
2016-07-31T06:17:51.184Z,"  -60"
2016-07-31T06:18:54.837Z,"  -60"
2016-07-31T06:19:58.493Z,"  -59"
2016-07-31T06:21:02.184Z,"  -60"
2016-07-31T06:22:05.819Z,"  -60"
2016-07-31T06:23:09.489Z,"  -60"
2016-07-31T06:24:13.143Z,"  -60"
2016-07-31T06:25:16.810Z,"  -61"
2016-07-31T06:26:20.460Z,"  -58"
2016-07-31T06:27:24.119Z,"  -59"
2016-07-31T06:28:27.770Z,"  -59"
2016-07-31T06:29:31.460Z,"  -58"
2016-07-31T06:30:35.310Z,"  -60"
2016-07-31T06:31:38.975Z,"  -58"
2016-07-31T06:32:42.648Z,"  -59"
2016-07-31T06:33:46.337Z,"  -59"
2016-07-31T06:34:50.042Z,"  -59"
2016-07-31T06:35:53.730Z,"  -60"
2016-07-31T06:36:57.384Z,"  -58"
2016-07-31T06:38:01.031Z,"  -58"
2016-07-31T06:39:04.720Z,"  -59"
2016-07-31T06:40:08.374Z,"  -58"
2016-07-31T06:41:12.207Z,"  -60"
2016-07-31T06:42:15.851Z,"  -58"
2016-07-31T06:43:19.527Z,"  -58"
2016-07-31T06:45:26.463Z,"  -58"
2016-07-31T06:46:30.119Z,"  -58"
2016-07-31T06:47:33.794Z,"  -59"
2016-07-31T06:48:37.430Z,"  -60"
2016-07-31T06:49:41.086Z,"  -60"
2016-07-31T06:50:44.759Z,"  -60"
2016-07-31T06:51:48.422Z,"  -58"
2016-07-31T06:52:52.104Z,"  -59"
2016-07-31T06:53:55.756Z,"  -60"
2016-07-31T06:54:59.421Z,"  -59"
2016-07-31T06:56:03.093Z,"  -59"
2016-07-31T06:57:06.735Z,"  -59"
2016-07-31T06:58:10.369Z,"  -60"
2016-07-31T06:59:14.016Z,"  -61"
2016-07-31T07:00:17.653Z,"  -64"
2016-07-31T07:01:21.339Z,"  -61"
2016-07-31T07:02:25.002Z,"  -61"
2016-07-31T07:03:28.670Z,"  -60"
2016-07-31T07:04:32.343Z,"  -58"
2016-07-31T07:05:36.011Z,"  -59"
2016-07-31T07:06:39.873Z,"  -62"
2016-07-31T07:07:43.540Z,"  -60"
2016-07-31T07:08:47.174Z,"  -60"
2016-07-31T07:09:51.058Z,"  -60"
2016-07-31T07:10:54.683Z,"  -59"
2016-07-31T07:11:58.333Z,"  -60"
2016-07-31T07:13:02.006Z,"  -60"
2016-07-31T07:14:05.691Z,"  -59"
2016-07-31T07:15:09.348Z,"  -58"
2016-07-31T07:16:13.000Z,"  -60"
2016-07-31T07:17:16.673Z,"  -61"
2016-07-31T07:18:20.500Z,"  -60"
2016-07-31T07:19:24.176Z,"  -59"
2016-07-31T07:20:27.871Z,"  -59"
2016-07-31T07:21:31.644Z,"  -60"
2016-07-31T07:22:35.290Z,"  -60"
2016-07-31T07:23:38.944Z,"  -59"
2016-07-31T07:24:42.619Z,"  -59"
2016-07-31T07:25:46.292Z,"  -60"
2016-07-31T07:26:49.969Z,"  -60"
2016-07-31T07:27:53.630Z,"  -58"
2016-07-31T07:28:57.291Z,"  -61"
2016-07-31T07:30:00.958Z,"  -62"
2016-07-31T07:31:04.629Z,"  -60"
2016-07-31T07:32:08.302Z,"  -60"
2016-07-31T07:33:12.050Z,"  -61"
2016-07-31T07:34:15.722Z,"  -60"
2016-07-31T07:35:19.368Z,"  -61"
2016-07-31T07:36:23.039Z,"  -59"
2016-07-31T07:37:26.886Z,"  -58"
2016-07-31T07:38:30.496Z,"  -59"
2016-07-31T07:39:34.129Z,"  -60"
2016-07-31T07:40:37.802Z,"  -61"
2016-07-31T07:41:41.474Z,"  -60"
2016-07-31T07:42:45.161Z,"  -60"
2016-07-31T07:43:48.821Z,"  -60"
2016-07-31T07:44:52.508Z,"  -59"
2016-07-31T07:45:56.195Z,"  -58"
2016-07-31T07:46:59.859Z,"  -60"
2016-07-31T07:48:03.514Z,"  -59"
2016-07-31T07:49:07.186Z,"  -60"
2016-07-31T07:50:10.828Z,"  -60"
2016-07-31T07:51:14.494Z,"  -60"
2016-07-31T07:52:18.363Z,"  -59"
2016-07-31T07:53:22.017Z,"  -58"
2016-07-31T07:54:25.692Z,"  -60"
2016-07-31T07:55:29.345Z,"  -63"
2016-07-31T07:56:33.031Z,"  -59"
2016-07-31T07:57:36.689Z,"  -60"
2016-07-31T07:58:40.355Z,"  -60"
2016-07-31T07:59:44.017Z,"  -60"
2016-07-31T08:00:47.663Z,"  -60"
2016-07-31T08:01:51.341Z,"  -59"
2016-07-31T08:02:55.224Z,"  -60"
2016-07-31T08:03:58.862Z,"  -61"
2016-07-31T08:05:02.778Z,"  -60"
2016-07-31T08:06:06.453Z,"  -61"
2016-07-31T08:07:10.126Z,"  -59"
2016-07-31T08:08:13.766Z,"  -59"
2016-07-31T08:09:17.438Z,"  -59"
2016-07-31T08:10:21.134Z,"  -60"
2016-07-31T08:11:24.810Z,"  -59"
2016-07-31T08:12:28.473Z,"  -60"
2016-07-31T08:13:32.158Z,"  -61"
2016-07-31T08:15:39.071Z,"  -59"
2016-07-31T08:16:42.729Z,"  -59"
2016-07-31T08:17:46.413Z,"  -59"
2016-07-31T08:18:50.055Z,"  -60"
2016-07-31T08:19:53.706Z,"  -62"
2016-07-31T08:20:57.325Z,"  -60"
2016-07-31T08:22:00.990Z,"  -62"
2016-07-31T08:23:04.668Z,"  -60"
2016-07-31T08:24:08.335Z,"  -61"
2016-07-31T08:25:12.026Z,"  -58"
2016-07-31T08:26:15.695Z,"  -60"
2016-07-31T08:27:19.348Z,"  -59"
2016-07-31T08:28:22.994Z,"  -59"
2016-07-31T08:29:26.659Z,"  -58"
2016-07-31T08:30:30.348Z,"  -60"
2016-07-31T08:31:34.031Z,"  -60"
2016-07-31T08:32:37.683Z,"  -60"
2016-07-31T08:33:41.370Z,"  -60"
2016-07-31T08:34:45.025Z,"  -59"
2016-07-31T08:35:48.691Z,"  -59"
2016-07-31T08:36:52.348Z,"  -60"
2016-07-31T08:37:56.039Z,"  -60"
2016-07-31T08:38:59.713Z,"  -60"
2016-07-31T08:40:03.371Z,"  -59"
2016-07-31T08:41:07.072Z,"  -60"
2016-07-31T08:42:10.739Z,"  -70"
2016-07-31T08:43:14.458Z,"  -61"
2016-07-31T08:44:18.116Z,"  -61"
2016-07-31T08:45:21.786Z,"  -60"
2016-07-31T08:46:25.500Z,"  -61"
2016-07-31T08:47:29.173Z,"  -62"
2016-07-31T08:48:32.790Z,"  -61"
2016-07-31T08:49:36.433Z,"  -61"
2016-07-31T08:50:40.092Z,"  -62"
2016-07-31T08:51:43.755Z,"  -60"
2016-07-31T08:52:47.441Z,"  -61"
2016-07-31T08:53:51.085Z,"  -60"
2016-07-31T08:54:54.962Z,"  -61"
2016-07-31T08:55:58.640Z,"  -61"
2016-07-31T08:57:02.307Z,"  -60"
2016-07-31T08:58:06.168Z,"  -61"
2016-07-31T08:59:09.858Z,"  -61"
2016-07-31T09:00:13.513Z,"  -62"
2016-07-31T09:01:17.151Z,"  -61"
2016-07-31T09:02:20.818Z,"  -61"
2016-07-31T09:03:24.463Z,"  -62"
2016-07-31T09:04:28.104Z,"  -61"
2016-07-31T09:05:31.969Z,"  -60"
2016-07-31T09:06:35.642Z,"  -60"
2016-07-31T09:07:39.490Z,"  -61"
2016-07-31T09:08:43.140Z,"  -61"
2016-07-31T09:09:46.771Z,"  -59"
2016-07-31T09:10:50.422Z,"  -60"
2016-07-31T09:11:54.104Z,"  -59"
2016-07-31T09:12:57.749Z,"  -60"
2016-07-31T09:14:01.408Z,"  -59"
2016-07-31T09:15:05.058Z,"  -60"
2016-07-31T09:16:08.732Z,"  -59"
2016-07-31T09:17:12.592Z,"  -61"
2016-07-31T09:18:16.259Z,"  -60"
2016-07-31T09:19:20.136Z,"  -60"
2016-07-31T09:20:23.797Z,"  -62"
2016-07-31T09:21:27.490Z,"  -62"
2016-07-31T09:22:31.218Z,"  -60"
2016-07-31T09:23:34.882Z,"  -60"
2016-07-31T09:24:38.755Z,"  -59"
2016-07-31T09:25:42.424Z,"  -61"
2016-07-31T09:26:46.117Z,"  -61"
2016-07-31T09:27:49.757Z,"  -62"
2016-07-31T09:28:53.443Z,"  -62"
2016-07-31T09:31:00.422Z,"  -60"
2016-07-31T09:32:04.066Z,"  -60"
2016-07-31T09:33:07.947Z,"  -59"
2016-07-31T09:34:11.602Z,"  -59"
2016-07-31T09:35:15.504Z,"  -60"
2016-07-31T09:36:19.179Z,"  -58"
2016-07-31T09:37:23.073Z,"  -59"
2016-07-31T09:38:26.755Z,"  -61"
2016-07-31T09:39:30.448Z,"  -61"
2016-07-31T09:40:34.107Z,"  -63"
2016-07-31T09:41:37.767Z,"  -60"
2016-07-31T09:42:41.436Z,"  -62"
2016-07-31T09:43:45.129Z,"  -63"
2016-07-31T09:44:48.812Z,"  -61"
2016-07-31T09:45:52.461Z,"  -59"
2016-07-31T09:46:56.306Z,"  -61"
2016-07-31T09:47:59.984Z,"  -61"
2016-07-31T09:49:03.619Z,"  -60"
2016-07-31T09:50:07.281Z,"  -60"
2016-07-31T09:51:10.933Z,"  -60"
2016-07-31T09:52:14.630Z,"  -61"
2016-07-31T09:53:18.258Z,"  -60"
2016-07-31T09:54:21.931Z,"  -61"
2016-07-31T09:55:25.582Z,"  -61"
2016-07-31T09:56:29.208Z,"  -62"
2016-07-31T09:57:32.868Z,"  -59"
2016-07-31T09:58:36.488Z,"  -61"
2016-07-31T09:59:40.157Z,"  -62"
2016-07-31T10:00:43.814Z,"  -61"
2016-07-31T10:01:47.474Z,"  -61"
2016-07-31T10:02:51.138Z,"  -62"
2016-07-31T10:03:54.848Z,"  -60"
2016-07-31T10:04:58.533Z,"  -63"
2016-07-31T10:06:02.379Z,"  -60"
2016-07-31T10:07:06.033Z,"  -60"
2016-07-31T10:08:09.714Z,"  -65"
2016-07-31T10:09:13.353Z,"  -63"
2016-07-31T10:10:17.045Z,"  -61"
2016-07-31T10:11:20.709Z,"  -61"
2016-07-31T10:12:24.382Z,"  -63"
2016-07-31T10:13:28.051Z,"  -63"
2016-07-31T10:14:31.726Z,"  -63"
2016-07-31T10:15:35.378Z,"  -63"
2016-07-31T10:16:39.070Z,"  -65"
2016-07-31T10:17:42.725Z,"  -61"
2016-07-31T10:18:46.400Z,"  -60"
2016-07-31T10:19:50.094Z,"  -65"
2016-07-31T10:20:53.781Z,"  -60"
2016-07-31T10:21:57.442Z,"  -59"
2016-07-31T10:23:01.107Z,"  -63"
2016-07-31T10:24:04.801Z,"  -64"
2016-07-31T10:25:08.495Z,"  -61"
2016-07-31T10:26:12.116Z,"  -60"
2016-07-31T10:27:15.777Z,"  -64"
2016-07-31T10:38:55.848Z,"  -67"
2016-07-31T10:40:18.354Z,"  -72"
2016-07-31T10:41:21.798Z,"  -68"
2016-07-31T10:42:25.609Z,"  -68"
2016-07-31T10:43:29.225Z,"  -69"
2016-07-31T10:44:32.858Z,"  -67"
2016-07-31T10:45:36.504Z,"  -67"
2016-07-31T10:46:40.186Z,"  -65"
2016-07-31T10:47:43.861Z,"  -66"
2016-07-31T10:48:47.482Z,"  -68"
2016-07-31T10:49:51.185Z,"  -67"
2016-07-31T10:50:54.877Z,"  -72"
2016-07-31T10:51:58.529Z,"  -70"
2016-07-31T10:53:02.200Z,"  -67"
2016-07-31T10:54:05.863Z,"  -70"
2016-07-31T10:55:09.537Z,"  -78"
2016-07-31T10:56:13.227Z,"  -79"
2016-07-31T10:57:16.929Z,"  -75"
2016-07-31T10:58:20.598Z,"  -74"
2016-07-31T10:59:24.315Z,"  -79"
2016-07-31T11:01:31.247Z,"  -78"
2016-07-31T11:02:34.929Z,"  -77"
2016-07-31T11:03:38.628Z,"  -77"
2016-07-31T11:04:42.286Z,"  -76"
2016-07-31T11:05:45.939Z,"  -85"
2016-07-31T11:06:49.651Z,"  -82"
2016-07-31T11:07:53.282Z,"  -78"
2016-07-31T11:08:56.924Z,"  -79"
2016-07-31T11:10:00.619Z,"  -81"
2016-07-31T11:11:04.328Z,"  -81"
2016-07-31T11:12:07.999Z,"  -79"
2016-07-31T11:13:11.671Z,"  -78"
2016-07-31T11:14:15.543Z,"  -81"
2016-07-31T11:16:22.507Z,"  -79"
2016-07-31T11:17:26.186Z,"  -82"
2016-07-31T11:18:30.079Z,"  -83"
2016-07-31T11:19:33.741Z,"  -82"
2016-07-31T11:20:37.431Z,"  -79"
2016-07-31T11:21:41.103Z,"  -83"
2016-07-31T11:22:44.802Z,"  -81"
2016-07-31T11:23:48.929Z,"  -81"
2016-07-31T11:24:52.598Z,"  -81"
2016-07-31T11:25:56.286Z,"  -80"
2016-07-31T11:27:00.133Z,"  -80"
2016-07-31T11:28:03.789Z,"  -81"
2016-07-31T11:29:07.476Z,"  -84"
2016-07-31T11:30:11.157Z,"  -84"
2016-07-31T11:31:14.805Z,"  -82"
2016-07-31T11:32:18.483Z,"  -79"
2016-07-31T11:33:22.171Z,"  -77"
2016-07-31T11:34:25.862Z,"  -79"
2016-07-31T11:35:29.589Z,"  -78"
2016-07-31T11:36:33.477Z,"  -77"
2016-07-31T11:37:37.175Z,"  -82"
2016-07-31T11:38:40.858Z,"  -84"
2016-07-31T11:39:44.574Z,"  -81"
2016-07-31T11:40:48.284Z,"  -77"
2016-07-31T11:41:51.929Z,"  -83"
2016-07-31T11:42:55.597Z,"  -82"
2016-07-31T11:43:59.306Z,"  -82"
2016-07-31T11:45:02.969Z,"  -78"
2016-07-31T11:46:06.635Z,"  -77"
2016-07-31T11:47:10.324Z,"  -83"
2016-07-31T11:48:13.993Z,"  -82"
2016-07-31T11:49:17.689Z,"  -83"
2016-07-31T11:50:21.536Z,"  -81"
2016-07-31T11:51:25.219Z,"  -81"
2016-07-31T11:52:28.883Z,"  -82"
2016-07-31T11:53:32.552Z,"  -82"
2016-07-31T11:54:36.209Z,"  -83"
2016-07-31T11:55:39.874Z,"  -80"
2016-07-31T11:56:43.629Z,"  -82"
2016-07-31T11:57:47.335Z,"  -82"
2016-07-31T11:58:51.018Z,"  -82"
2016-07-31T11:59:54.686Z,"  -83"
2016-07-31T12:00:58.369Z,"  -80"
2016-07-31T12:02:02.054Z,"  -77"
2016-07-31T12:03:05.692Z,"  -77"
2016-07-31T12:04:09.412Z,"  -76"
2016-07-31T12:05:13.070Z,"  -79"
2016-07-31T12:06:16.762Z,"  -75"
2016-07-31T12:07:20.418Z,"  -75"
2016-07-31T12:08:24.084Z,"  -75"
2016-07-31T12:09:27.776Z,"  -82"
2016-07-31T12:10:31.408Z,"  -81"
2016-07-31T12:11:35.091Z,"  -82"
2016-07-31T12:12:38.789Z,"  -81"
2016-07-31T12:13:42.457Z,"  -82"
2016-07-31T12:14:46.436Z,"  -82"
2016-07-31T12:15:50.093Z,"  -81"
2016-07-31T12:16:53.768Z,"  -82"
2016-07-31T12:17:58.351Z,"  -81"
2016-07-31T12:19:01.988Z,"  -80"
2016-07-31T12:20:05.683Z,"  -81"
2016-07-31T12:21:09.344Z,"  -82"
2016-07-31T12:22:13.024Z,"  -82"
2016-07-31T12:23:16.678Z,"  -75"
2016-07-31T12:24:20.451Z,"  -75"
2016-07-31T12:25:24.155Z,"  -74"
2016-07-31T12:26:27.921Z,"  -75"
2016-07-31T12:27:31.624Z,"  -75"
2016-07-31T12:28:35.489Z,"  -74"
2016-07-31T12:29:39.183Z,"  -74"
2016-07-31T12:31:46.144Z,"  -74"
2016-07-31T12:32:49.807Z,"  -74"
2016-07-31T12:33:53.471Z,"  -74"
2016-07-31T12:34:57.179Z,"  -76"
2016-07-31T12:36:00.878Z,"  -75"
2016-07-31T12:37:04.571Z,"  -75"
2016-07-31T12:38:08.269Z,"  -77"
2016-07-31T12:39:11.942Z,"  -77"
2016-07-31T12:40:15.644Z,"  -77"
2016-07-31T12:41:19.337Z,"  -76"
2016-07-31T12:42:23.027Z,"  -77"
2016-07-31T12:43:26.715Z,"  -77"
2016-07-31T12:44:30.371Z,"  -75"
2016-07-31T12:45:34.072Z,"  -75"
2016-07-31T12:46:37.769Z,"  -76"
2016-07-31T12:47:41.406Z,"  -76"
2016-07-31T12:48:45.105Z,"  -77"
2016-07-31T12:49:48.777Z,"  -77"
2016-07-31T12:50:52.431Z,"  -76"
2016-07-31T12:51:56.106Z,"  -76"
2016-07-31T12:52:59.775Z,"  -77"
2016-07-31T12:54:03.625Z,"  -76"
2016-07-31T12:55:07.317Z,"  -75"
2016-07-31T12:56:10.995Z,"  -75"
2016-07-31T12:57:14.686Z,"  -73"
2016-07-31T12:58:18.341Z,"  -75"
2016-07-31T12:59:21.999Z,"  -79"
2016-07-31T13:00:25.717Z,"  -79"
2016-07-31T13:01:29.404Z,"  -78"
2016-07-31T13:02:33.072Z,"  -79"
2016-07-31T13:03:36.786Z,"  -79"
2016-07-31T13:04:40.486Z,"  -75"
2016-07-31T13:05:44.185Z,"  -76"
2016-07-31T13:06:47.865Z,"  -77"
2016-07-31T13:07:51.544Z,"  -77"
2016-07-31T13:08:55.233Z,"  -78"
2016-07-31T13:09:58.932Z,"  -78"
2016-07-31T13:11:02.622Z,"  -79"
2016-07-31T13:12:06.293Z,"  -80"
2016-07-31T13:13:09.978Z,"  -82"